Time;durP1;ratioP1;P1;durP2;ratioP2;P2;SDS_P1;SDS_P2;PMS_P1;PMS_P2;Temp;Humidity;BMP_temperature;BMP_pressure;BME280_temperature;BME280_humidity;BME280_pressure;Samples;Min_cycle;Max_cycle;Signal;HPM_P1;HPM_P2
2021/05/12 00:00:13;;;;;;;;;;;;;;;13.52;58.08;96604.48;1740298;81;20209;-75
2021/05/12 00:02:41;;;;;;;;;;;;;;;13.52;56.39;96604.95;1746794;81;20184;-74
2021/05/12 00:05:09;;;;;;;;;;;;;;;13.51;54.39;96605.93;1742800;81;20243;-75
2021/05/12 00:07:35;;;;;;;;;;;;;;;13.48;55.23;96609.72;1740122;81;20257;-77
2021/05/12 00:10:04;;;;;;;;;;;;;;;13.45;55.26;96609.20;1733581;83;20201;-77
2021/05/12 00:12:31;;;;;;;;;;;;;;;13.41;55.91;96606.03;1733289;83;20225;-78
2021/05/12 00:14:57;;;;;;;;;;;;;;;13.36;52.48;96609.11;1750360;81;20179;-78
2021/05/12 00:17:23;;;;;;;;;;;;;;;13.31;55.71;96608.75;1742517;81;20169;-76
2021/05/12 00:19:55;;;;;;;;;;;;;;;13.23;56.24;96601.56;1751571;81;20173;-76
2021/05/12 00:22:31;;;;;;;;;;;;;;;13.17;55.60;96604.82;1733558;83;20508;-78
2021/05/12 00:24:45;;;;;;;;;;;;;;;13.11;55.76;96604.94;1747280;81;20579;-77
2021/05/12 00:27:11;;;;;;;;;;;;;;;13.09;55.84;96598.95;1733578;83;20547;-75
2021/05/12 00:29:37;;;;;;;;;;;;;;;13.02;55.65;96599.22;1747983;81;20524;-76
2021/05/12 00:32:04;;;;;;;;;;;;;;;12.97;56.74;96598.83;1743703;81;20519;-76
2021/05/12 00:34:30;;;;;;;;;;;;;;;12.93;56.44;96590.87;1755930;81;20172;-74
2021/05/12 00:36:57;;;;;;;;;;;;;;;12.89;54.55;96591.66;1741198;81;20164;-75
2021/05/12 00:39:23;;;;;;;;;;;;;;;12.84;55.89;96583.33;1763529;81;20160;-76
2021/05/12 00:41:50;;;;;;;;;;;;;;;12.81;55.43;96589.75;1734247;81;20168;-77
2021/05/12 00:44:18;;;;;;;;;;;;;;;12.82;55.29;96589.25;1724831;82;20179;-77
2021/05/12 00:46:46;;;;;;;;;;;;;;;12.90;57.44;96592.48;1746644;82;20223;-77
2021/05/12 00:49:12;;;;;;;;;;;;;;;13.05;58.34;96595.44;1734778;82;20183;-76
2021/05/12 00:51:39;;;;;;;;;;;;;;;13.22;56.98;96595.92;1735130;82;20251;-77
2021/05/12 00:54:06;;;;;;;;;;;;;;;13.35;56.52;96596.03;1735960;82;20497;-76
2021/05/12 00:56:34;;;;;;;;;;;;;;;13.43;57.17;96591.66;1738654;82;20173;-74
2021/05/12 00:59:02;;;;;;;;;;;;;;;13.48;55.42;96595.16;1741007;82;20209;-76
2021/05/12 01:01:28;;;;;;;;;;;;;;;13.51;54.92;96594.02;1706864;83;20618;-77
2021/05/12 01:03:54;;;;;;;;;;;;;;;13.54;55.27;96596.37;1725129;82;20569;-76
2021/05/12 01:06:26;;;;;;;;;;;;;;;13.57;55.55;96586.30;1750468;82;20180;-76
2021/05/12 01:08:53;;;;;;;;;;;;;;;13.61;54.43;96590.79;1735972;82;20527;-76
2021/05/12 01:11:19;;;;;;;;;;;;;;;13.67;54.97;96584.05;1700356;83;20180;-75
2021/05/12 01:13:46;;;;;;;;;;;;;;;13.69;54.76;96585.55;1723789;82;20231;-76
2021/05/12 01:16:14;;;;;;;;;;;;;;;13.72;54.96;96589.72;1735519;82;20535;-75
2021/05/12 01:18:40;;;;;;;;;;;;;;;13.76;54.93;96586.27;1726628;82;20537;-76
2021/05/12 01:21:09;;;;;;;;;;;;;;;13.80;55.04;96581.83;1750183;82;20220;-76
2021/05/12 01:23:38;;;;;;;;;;;;;;;13.82;54.41;96580.33;1726875;82;20255;-76
2021/05/12 01:26:09;;;;;;;;;;;;;;;13.82;54.42;96576.36;1743882;82;20176;-75
2021/05/12 01:28:38;;;;;;;;;;;;;;;13.84;54.65;96573.89;1750150;82;20172;-76
2021/05/12 01:31:17;;;;;;;;;;;;;;;13.90;54.64;96569.78;1742039;82;20156;-75
2021/05/12 01:33:43;;;;;;;;;;;;;;;13.92;54.36;96574.44;1733345;82;20603;-76
2021/05/12 01:36:10;;;;;;;;;;;;;;;13.91;54.44;96570.13;1730075;82;20180;-76
2021/05/12 01:38:39;;;;;;;;;;;;;;;13.87;53.72;96572.77;1750405;82;20192;-75
2021/05/12 01:41:06;;;;;;;;;;;;;;;13.87;54.18;96571.44;1736550;82;20183;-75
2021/05/12 01:43:34;;;;;;;;;;;;;;;13.94;53.76;96577.77;1736539;82;20208;-76
2021/05/12 01:46:02;;;;;;;;;;;;;;;13.98;53.47;96577.77;1721050;83;20535;-76
2021/05/12 01:48:29;;;;;;;;;;;;;;;13.98;53.61;96561.88;1745218;82;20176;-75
2021/05/12 01:50:55;;;;;;;;;;;;;;;13.97;53.34;96568.16;1721322;82;20231;-78
2021/05/12 01:53:23;;;;;;;;;;;;;;;13.96;53.35;96562.55;1747747;82;20181;-75
2021/05/12 01:55:50;;;;;;;;;;;;;;;13.98;53.16;96569.01;1721072;83;20207;-77
2021/05/12 01:58:17;;;;;;;;;;;;;;;13.97;53.28;96569.48;1721120;83;20519;-77
2021/05/12 02:00:46;;;;;;;;;;;;;;;13.99;53.26;96570.67;1743899;82;20521;-76
2021/05/12 02:03:14;;;;;;;;;;;;;;;13.99;52.73;96564.05;1750982;82;20509;-76
2021/05/12 02:05:42;;;;;;;;;;;;;;;13.99;52.94;96568.84;1723468;82;20512;-74
2021/05/12 02:08:11;;;;;;;;;;;;;;;13.98;53.63;96560.55;1721131;83;20566;-77
2021/05/12 02:10:39;;;;;;;;;;;;;;;13.97;53.26;96568.16;1721345;83;20175;-76
2021/05/12 02:13:05;;;;;;;;;;;;;;;13.95;52.73;96560.04;1731148;82;20169;-77
2021/05/12 02:15:31;;;;;;;;;;;;;;;13.97;52.76;96558.88;1724090;82;20188;-77
2021/05/12 02:17:58;;;;;;;;;;;;;;;13.96;52.76;96549.30;1741765;82;20160;-77
2021/05/12 02:20:26;;;;;;;;;;;;;;;13.92;52.69;96549.27;1743520;82;20163;-76
2021/05/12 02:22:53;;;;;;;;;;;;;;;13.89;52.90;96546.92;1734297;82;20172;-77
2021/05/12 02:25:19;;;;;;;;;;;;;;;13.85;52.63;96547.73;1728955;82;20207;-76
2021/05/12 02:27:45;;;;;;;;;;;;;;;13.87;52.41;96548.92;1721800;82;20164;-74
2021/05/12 02:30:12;;;;;;;;;;;;;;;13.97;52.12;96544.82;1750945;82;20252;-75
2021/05/12 02:32:39;;;;;;;;;;;;;;;14.07;51.80;96540.23;1737931;82;20183;-77
2021/05/12 02:35:09;;;;;;;;;;;;;;;14.11;51.82;96534.12;1727899;82;20163;-78
2021/05/12 02:37:36;;;;;;;;;;;;;;;14.13;51.85;96534.29;1721137;83;20500;-78
2021/05/12 02:40:05;;;;;;;;;;;;;;;14.17;51.53;96530.82;1721013;83;20500;-77
2021/05/12 02:42:31;;;;;;;;;;;;;;;14.18;51.61;96529.36;1729698;81;20146;-79
2021/05/12 02:44:57;;;;;;;;;;;;;;;14.17;51.25;96529.50;1723520;82;20549;-76
2021/05/12 02:47:23;;;;;;;;;;;;;;;14.15;51.24;96527.53;1748983;82;20184;-75
2021/05/12 02:49:49;;;;;;;;;;;;;;;14.13;51.22;96529.50;1743669;82;20212;-77
2021/05/12 02:52:15;;;;;;;;;;;;;;;14.16;51.10;96533.13;1750389;82;20184;-77
2021/05/12 02:54:42;;;;;;;;;;;;;;;14.17;51.04;96528.17;1733818;82;20576;-77
2021/05/12 02:57:08;;;;;;;;;;;;;;;14.17;50.79;96527.69;1725993;82;20229;-74
2021/05/12 02:59:34;;;;;;;;;;;;;;;14.19;50.66;96523.07;1733799;82;20204;-76
2021/05/12 03:02:00;;;;;;;;;;;;;;;14.20;50.69;96529.19;1749426;82;20188;-77
2021/05/12 03:04:26;;;;;;;;;;;;;;;14.19;50.74;96523.55;1730258;82;20208;-76
2021/05/12 03:06:53;;;;;;;;;;;;;;;14.17;50.60;96524.20;1740857;82;20185;-77
2021/05/12 03:09:19;;;;;;;;;;;;;;;14.13;51.02;96522.88;1726913;82;20529;-76
2021/05/12 03:11:45;;;;;;;;;;;;;;;14.08;51.56;96520.70;1741329;82;20165;-77
2021/05/12 03:14:11;;;;;;;;;;;;;;;14.05;51.11;96515.71;1732493;82;20166;-76
2021/05/12 03:16:37;;;;;;;;;;;;;;;14.01;51.42;96524.98;1738670;82;20204;-76
2021/05/12 03:19:04;;;;;;;;;;;;;;;13.95;52.11;96525.13;1725124;82;20174;-75
2021/05/12 03:21:33;;;;;;;;;;;;;;;13.89;51.88;96523.08;1702482;83;20143;-77
2021/05/12 03:24:00;;;;;;;;;;;;;;;13.81;51.93;96518.59;1726194;82;20166;-76
2021/05/12 03:26:27;;;;;;;;;;;;;;;13.76;52.11;96522.70;1735050;82;20185;-75
2021/05/12 03:28:53;;;;;;;;;;;;;;;13.68;52.18;96518.17;1737620;82;20170;-76
2021/05/12 03:31:19;;;;;;;;;;;;;;;13.64;52.14;96513.69;1747720;82;20164;-76
2021/05/12 03:33:46;;;;;;;;;;;;;;;13.59;52.36;96506.22;1746663;82;20173;-76
2021/05/12 03:36:12;;;;;;;;;;;;;;;13.58;52.55;96498.44;1748082;82;20157;-76
2021/05/12 03:38:39;;;;;;;;;;;;;;;13.57;52.51;96505.54;1737827;82;20169;-76
2021/05/12 03:41:06;;;;;;;;;;;;;;;13.58;52.64;96505.88;1735957;82;20203;-76
2021/05/12 03:43:34;;;;;;;;;;;;;;;13.58;52.83;96509.03;1737543;81;20160;-77
2021/05/12 03:46:02;;;;;;;;;;;;;;;13.58;52.85;96507.70;1722583;82;20554;-76
2021/05/12 03:48:29;;;;;;;;;;;;;;;13.59;52.75;96508.05;1720636;83;20517;-77
2021/05/12 03:50:55;;;;;;;;;;;;;;;13.62;52.68;96506.39;1731325;82;20224;-76
2021/05/12 03:53:21;;;;;;;;;;;;;;;13.65;52.43;96503.92;1744534;82;20169;-74
2021/05/12 03:55:47;;;;;;;;;;;;;;;13.71;52.28;96505.45;1740812;82;20214;-77
2021/05/12 03:58:14;;;;;;;;;;;;;;;13.93;52.29;96500.59;1720524;83;20146;-76
2021/05/12 04:00:40;;;;;;;;;;;;;;;14.31;52.01;96490.47;1723181;82;20183;-76
2021/05/12 04:03:06;;;;;;;;;;;;;;;14.78;51.21;96497.03;1737280;82;20212;-77
2021/05/12 04:05:33;;;;;;;;;;;;;;;15.23;49.73;96493.56;1729789;82;20184;-75
2021/05/12 04:07:59;;;;;;;;;;;;;;;15.69;49.42;96490.82;1738473;82;20256;-75
2021/05/12 04:10:25;;;;;;;;;;;;;;;16.06;48.92;96486.73;1730779;82;20180;-76
2021/05/12 04:12:51;;;;;;;;;;;;;;;16.46;47.49;96482.70;1722919;82;20207;-74
2021/05/12 04:15:18;;;;;;;;;;;;;;;16.81;47.18;96487.13;1724605;82;20252;-77
2021/05/12 04:17:44;;;;;;;;;;;;;;;17.18;46.45;96485.53;1731000;82;20229;-75
2021/05/12 04:20:13;;;;;;;;;;;;;;;17.75;47.06;96482.83;1727859;82;20168;-75
2021/05/12 04:22:40;;;;;;;;;;;;;;;18.39;45.32;96481.41;1738167;82;21055;-77
2021/05/12 04:25:10;;;;;;;;;;;;;;;18.97;44.31;96475.75;1743825;82;20516;-76
2021/05/12 04:27:36;;;;;;;;;;;;;;;19.43;44.91;96471.29;1719096;82;20248;-76
2021/05/12 04:30:09;;;;;;;;;;;;;;;19.49;42.45;96466.49;1734299;82;20178;-76
2021/05/12 04:32:35;;;;;;;;;;;;;;;19.69;42.18;96465.80;1749953;81;20168;-75
2021/05/12 04:35:02;;;;;;;;;;;;;;;19.91;41.74;96470.58;1748647;82;20189;-77
2021/05/12 04:37:28;;;;;;;;;;;;;;;19.99;40.51;96464.77;1750197;82;20192;-78
2021/05/12 04:39:55;;;;;;;;;;;;;;;20.38;37.68;96466.78;1744078;82;20162;-77
2021/05/12 04:42:21;;;;;;;;;;;;;;;20.95;39.59;96469.20;1743409;82;20250;-76
2021/05/12 04:44:47;;;;;;;;;;;;;;;21.31;35.77;96461.77;1728131;81;20192;-75
2021/05/12 04:47:13;;;;;;;;;;;;;;;21.54;34.43;96460.00;1733045;82;20142;-75
2021/05/12 04:49:39;;;;;;;;;;;;;;;21.68;34.52;96459.48;1748346;82;20158;-76
2021/05/12 04:52:06;;;;;;;;;;;;;;;21.76;34.39;96455.23;1731837;82;20188;-76
2021/05/12 04:54:32;;;;;;;;;;;;;;;21.76;34.11;96455.77;1717217;82;20508;-75
2021/05/12 04:56:59;;;;;;;;;;;;;;;21.42;32.98;96466.52;1720260;82;20522;-75
2021/05/12 04:59:25;;;;;;;;;;;;;;;21.53;34.33;96452.48;1746520;82;20541;-75
2021/05/12 05:01:52;;;;;;;;;;;;;;;21.61;32.79;96461.37;1719396;82;20525;-75
2021/05/12 05:04:18;;;;;;;;;;;;;;;21.68;32.37;96449.60;1718712;82;20553;-76
2021/05/12 05:06:44;;;;;;;;;;;;;;;21.82;31.84;96453.08;1712714;82;20498;-75
2021/05/12 05:09:10;;;;;;;;;;;;;;;21.93;32.63;96458.30;1743509;82;20498;-76
2021/05/12 05:11:36;;;;;;;;;;;;;;;22.02;32.27;96451.35;1745869;82;20181;-75
2021/05/12 05:14:03;;;;;;;;;;;;;;;22.45;33.56;96449.47;1743955;82;20184;-77
2021/05/12 05:16:29;;;;;;;;;;;;;;;22.73;32.50;96453.11;1742461;82;20233;-75
2021/05/12 05:18:55;;;;;;;;;;;;;;;23.14;31.76;96454.18;1722543;82;20136;-76
2021/05/12 05:21:21;;;;;;;;;;;;;;;23.24;30.72;96445.14;1740626;82;20557;-76
2021/05/12 05:23:47;;;;;;;;;;;;;;;23.52;28.98;96446.00;1748398;82;20174;-77
2021/05/12 05:26:13;;;;;;;;;;;;;;;23.75;30.28;96442.36;1748159;82;20495;-77
2021/05/12 05:28:39;;;;;;;;;;;;;;;23.87;31.07;96441.93;1732602;82;20179;-75
2021/05/12 05:31:06;;;;;;;;;;;;;;;23.98;29.81;96447.95;1718728;83;20247;-76
2021/05/12 05:33:50;;;;;;;;;;;;;;;23.93;29.34;96449.09;1718779;83;20192;-77
2021/05/12 05:36:35;;;;;;;;;;;;;;;23.71;28.35;96442.80;1696498;83;20152;-75
2021/05/12 05:39:19;;;;;;;;;;;;;;;23.77;29.45;96444.31;1718756;83;20164;-77
2021/05/12 05:41:47;;;;;;;;;;;;;;;23.63;30.06;96439.06;1681370;83;20524;-76
2021/05/12 05:44:32;;;;;;;;;;;;;;;23.54;29.42;96443.08;1718584;83;20501;-78
2021/05/12 05:47:17;;;;;;;;;;;;;;;23.70;30.10;96446.56;1718762;83;20165;-78
2021/05/12 05:50:04;;;;;;;;;;;;;;;23.51;28.12;96447.58;1718610;83;20339;-79
2021/05/12 05:52:49;;;;;;;;;;;;;;;23.71;29.61;96442.80;1718439;83;20164;-76
2021/05/12 05:55:34;;;;;;;;;;;;;;;23.93;27.93;96441.56;1723525;83;20274;-78
2021/05/12 05:58:19;;;;;;;;;;;;;;;23.93;28.60;96444.25;1709427;83;20524;-77
2021/05/12 06:01:03;;;;;;;;;;;;;;;24.03;28.04;96446.44;1698636;83;20156;-76
2021/05/12 06:03:30;;;;;;;;;;;;;;;23.85;27.93;96439.44;1696685;83;20242;-75
2021/05/12 06:06:15;;;;;;;;;;;;;;;23.75;27.81;96443.20;1696974;83;20206;-77
2021/05/12 06:09:00;;;;;;;;;;;;;;;23.63;27.97;96437.72;1712607;83;20365;-77
2021/05/12 06:11:44;;;;;;;;;;;;;;;23.43;28.09;96433.08;1725759;83;20172;-77
2021/05/12 06:14:24;;;;;;;;;;;;;;;23.50;28.46;96423.08;1702438;83;20183;-76
2021/05/12 06:17:09;;;;;;;;;;;;;;;23.50;28.73;96429.26;1725664;83;20167;-77
2021/05/12 06:19:54;;;;;;;;;;;;;;;23.54;29.00;96424.25;1725752;83;20185;-76
2021/05/12 06:22:40;;;;;;;;;;;;;;;23.55;28.60;96432.63;1725664;83;20207;-76
2021/05/12 06:25:24;;;;;;;;;;;;;;;23.40;28.73;96422.22;1719329;83;20155;-78
2021/05/12 06:28:09;;;;;;;;;;;;;;;23.32;28.92;96425.20;1724110;83;20160;-78
2021/05/12 06:30:53;;;;;;;;;;;;;;;23.26;29.26;96419.36;1728285;79;20200;-78
2021/05/12 06:33:39;;;;;;;;;;;;;;;23.35;29.04;96414.01;1729343;82;20236;-74
2021/05/12 06:36:24;;;;;;;;;;;;;;;23.31;28.81;96416.32;1741369;82;20530;-78
2021/05/12 06:39:10;;;;;;;;;;;;;;;23.29;28.72;96408.99;1737741;82;20189;-72
2021/05/12 06:41:36;;;;;;;;;;;;;;;23.30;28.98;96402.58;1709938;84;20188;-74
2021/05/12 06:44:03;;;;;;;;;;;;;;;23.21;29.60;96410.08;1695802;84;20202;-74
2021/05/12 06:46:30;;;;;;;;;;;;;;;23.32;28.82;96396.46;1688370;84;20314;-74
2021/05/12 06:48:56;;;;;;;;;;;;;;;23.41;29.12;96392.14;1709995;84;20223;-75
2021/05/12 06:51:22;;;;;;;;;;;;;;;23.45;29.52;96391.47;1705189;84;20542;-78
2021/05/12 06:53:48;;;;;;;;;;;;;;;23.90;29.67;96382.80;1682441;85;20203;-73
2021/05/12 06:56:14;;;;;;;;;;;;;;;24.07;28.60;96392.47;1681962;85;20155;-76
2021/05/12 06:58:42;;;;;;;;;;;;;;;23.93;28.37;96385.86;1684516;84;20214;-77
2021/05/12 07:01:15;;;;;;;;;;;;;;;23.99;28.45;96380.94;1685580;84;20266;-76
2021/05/12 07:03:41;;;;;;;;;;;;;;;24.13;28.78;96390.20;1707267;84;20621;-76
2021/05/12 07:06:07;;;;;;;;;;;;;;;24.15;28.64;96381.38;1711955;84;20165;-76
2021/05/12 07:08:34;;;;;;;;;;;;;;;24.15;28.56;96381.38;1701973;84;20175;-75
2021/05/12 07:11:01;;;;;;;;;;;;;;;24.31;28.97;96367.81;1694458;84;20198;-76
2021/05/12 07:13:27;;;;;;;;;;;;;;;24.85;29.05;96367.84;1683331;85;20523;-75
2021/05/12 07:15:53;;;;;;;;;;;;;;;25.10;27.14;96366.30;1687755;84;20161;-76
2021/05/12 07:18:19;;;;;;;;;;;;;;;25.36;27.90;96368.22;1699333;84;20163;-74
2021/05/12 07:20:45;;;;;;;;;;;;;;;25.29;26.74;96364.02;1683575;84;20191;-76
2021/05/12 07:23:20;;;;;;;;;;;;;;;25.53;26.98;96363.47;1685245;84;20159;-76
2021/05/12 07:25:48;;;;;;;;;;;;;;;26.01;27.34;96354.22;1683344;85;20618;-78
2021/05/12 07:28:15;;;;;;;;;;;;;;;26.59;26.37;96356.92;1683574;85;20155;-76
2021/05/12 07:30:42;;;;;;;;;;;;;;;26.48;25.43;96355.94;1680408;85;20175;-75
2021/05/12 07:33:08;;;;;;;;;;;;;;;26.64;25.44;96350.78;1677985;84;20175;-77
2021/05/12 07:35:35;;;;;;;;;;;;;;;26.79;25.88;96344.85;1676570;84;20192;-74
2021/05/12 07:38:01;;;;;;;;;;;;;;;26.90;26.09;96341.25;1692298;84;20201;-75
2021/05/12 07:40:31;;;;;;;;;;;;;;;26.79;26.49;96340.80;1692372;84;20196;-75
2021/05/12 07:43:00;;;;;;;;;;;;;;;26.73;26.99;96337.16;1702108;84;20190;-77
2021/05/12 07:45:26;;;;;;;;;;;;;;;27.06;25.75;96331.47;1700577;84;20217;-76
2021/05/12 07:47:53;;;;;;;;;;;;;;;27.07;26.78;96329.60;1676197;86;20182;-77
2021/05/12 07:50:19;;;;;;;;;;;;;;;27.16;25.32;96323.22;1676232;85;20214;-76
2021/05/12 07:52:45;;;;;;;;;;;;;;;27.33;25.45;96321.84;1678237;84;20223;-73
2021/05/12 07:55:12;;;;;;;;;;;;;;;27.22;26.00;96317.64;1700590;84;20213;-76
2021/05/12 07:57:39;;;;;;;;;;;;;;;27.34;26.22;96313.47;1704674;84;20157;-75
2021/05/12 08:00:10;;;;;;;;;;;;;;;27.27;25.75;96308.78;1704221;84;20234;-77
2021/05/12 08:02:38;;;;;;;;;;;;;;;27.27;26.38;96304.72;1697756;84;20177;-75
2021/05/12 08:05:05;;;;;;;;;;;;;;;27.17;26.28;96301.88;1679497;84;20183;-75
2021/05/12 08:07:33;;;;;;;;;;;;;;;27.37;26.51;96300.80;1676455;86;20207;-77
2021/05/12 08:09:59;;;;;;;;;;;;;;;27.47;25.62;96283.91;1676286;86;20263;-75
2021/05/12 08:12:25;;;;;;;;;;;;;;;27.13;25.26;96294.80;1694770;84;20240;-73
2021/05/12 08:14:51;;;;;;;;;;;;;;;27.13;26.22;96292.09;1700298;84;20222;-76
2021/05/12 08:17:18;;;;;;;;;;;;;;;27.38;27.10;96288.92;1683847;84;20137;-75
2021/05/12 08:19:44;;;;;;;;;;;;;;;27.47;25.36;96293.38;1691548;84;20189;-76
2021/05/12 08:22:10;;;;;;;;;;;;;;;26.99;25.06;96274.59;1688456;84;20293;-76
2021/05/12 08:24:36;;;;;;;;;;;;;;;26.93;25.01;96281.81;1685451;84;20190;-77
2021/05/12 08:27:04;;;;;;;;;;;;;;;26.75;25.38;96279.63;1682626;84;20172;-75
2021/05/12 08:29:30;;;;;;;;;;;;;;;26.54;26.34;96272.25;1681988;84;20175;-75
2021/05/12 08:31:58;;;;;;;;;;;;;;;26.14;26.04;96278.88;1677560;85;20199;-77
2021/05/12 08:34:24;;;;;;;;;;;;;;;25.59;26.39;96272.17;1678692;85;20179;-75
2021/05/12 08:36:50;;;;;;;;;;;;;;;25.80;26.75;96264.48;1678866;85;20582;-75
2021/05/12 08:39:16;;;;;;;;;;;;;;;25.70;26.41;96261.88;1680872;84;20484;-76
2021/05/12 08:41:43;;;;;;;;;;;;;;;25.46;26.60;96258.42;1679184;84;20183;-75
2021/05/12 08:44:12;;;;;;;;;;;;;;;25.44;27.01;96254.30;1702243;84;20190;-76
2021/05/12 08:46:40;;;;;;;;;;;;;;;25.34;27.46;96251.66;1680780;84;20570;-75
2021/05/12 08:49:07;;;;;;;;;;;;;;;25.34;27.10;96246.80;1704349;84;20516;-79
2021/05/12 08:51:34;;;;;;;;;;;;;;;25.41;27.02;96244.81;1683505;84;20162;-78
2021/05/12 08:54:00;;;;;;;;;;;;;;;25.38;27.62;96242.05;1699177;84;20189;-77
2021/05/12 08:56:27;;;;;;;;;;;;;;;25.45;27.22;96237.91;1692257;84;20155;-79
2021/05/12 08:58:53;;;;;;;;;;;;;;;25.46;27.11;96239.55;1680109;84;20150;-80
2021/05/12 09:01:19;;;;;;;;;;;;;;;25.38;27.04;96239.89;1694127;84;20179;-78
2021/05/12 09:03:46;;;;;;;;;;;;;;;25.24;27.43;96238.80;1695073;84;20155;-77
2021/05/12 09:06:13;;;;;;;;;;;;;;;24.90;27.91;96233.74;1685548;83;20136;-76
2021/05/12 09:08:46;;;;;;;;;;;;;;;24.81;27.97;96235.16;1702263;84;20156;-74
2021/05/12 09:11:11;;;;;;;;;;;;;;;24.72;28.04;96234.70;1686646;84;20200;-74
2021/05/12 09:13:39;;;;;;;;;;;;;;;24.56;28.58;96237.00;1699880;84;20484;-73
2021/05/12 09:16:26;;;;;;;;;;;;;;;24.43;28.79;96234.00;1662897;84;20582;-76
2021/05/12 09:19:13;;;;;;;;;;;;;;;24.28;28.60;96225.56;1692269;84;20160;-73
2021/05/12 09:21:45;;;;;;;;;;;;;;;24.09;29.18;96233.72;1701124;84;20166;-74
2021/05/12 09:24:30;;;;;;;;;;;;;;;23.73;29.78;96222.01;1678217;85;20183;-75
2021/05/12 09:26:59;;;;;;;;;;;;;;;23.74;30.05;96219.62;1679423;85;20147;-76
2021/05/12 09:29:33;;;;;;;;;;;;;;;23.87;29.77;96221.30;1679326;85;20195;-75
2021/05/12 09:32:07;;;;;;;;;;;;;;;23.87;30.13;96221.30;1678793;84;20527;-80
2021/05/12 09:35:03;;;;;;;;;;;;;;;23.91;30.21;96220.30;1662696;86;20201;-78
2021/05/12 09:37:33;;;;;;;;;;;;;;;24.03;30.11;96227.09;1662599;86;20159;-77
2021/05/12 09:40:05;;;;;;;;;;;;;;;23.95;30.15;96215.61;1662576;85;20239;-78
2021/05/12 09:42:31;;;;;;;;;;;;;;;23.95;30.51;96222.34;1662477;85;20218;-80
2021/05/12 09:45:21;;;;;;;;;;;;;;;24.00;30.63;96209.00;1687429;84;20541;-78
2021/05/12 09:47:54;;;;;;;;;;;;;;;24.00;30.50;96204.96;1704780;84;20266;-78
2021/05/12 09:50:23;;;;;;;;;;;;;;;23.85;30.62;96201.32;1689480;84;20159;-78
2021/05/12 09:52:52;;;;;;;;;;;;;;;23.75;30.90;96206.47;1695573;84;20157;-78
2021/05/12 09:55:19;;;;;;;;;;;;;;;23.77;31.01;96199.50;1695785;84;20513;-78
2021/05/12 09:58:05;;;;;;;;;;;;;;;23.77;31.21;96197.61;1698011;84;20141;-79
2021/05/12 10:00:33;;;;;;;;;;;;;;;23.73;31.27;96196.95;1682430;84;20264;-77
2021/05/12 10:03:00;;;;;;;;;;;;;;;23.69;31.30;96189.37;1694816;84;20496;-76
2021/05/12 10:05:27;;;;;;;;;;;;;;;23.69;31.78;96190.71;1697380;84;20251;-76
2021/05/12 10:08:00;;;;;;;;;;;;;;;23.68;32.12;96193.61;1679801;84;20216;-73
2021/05/12 10:10:41;;;;;;;;;;;;;;;23.65;32.39;96180.10;1687316;83;20175;-75
2021/05/12 10:13:08;;;;;;;;;;;;;;;23.77;32.03;96193.58;1684018;84;20195;-74
2021/05/12 10:15:34;;;;;;;;;;;;;;;23.87;31.87;96187.66;1690128;84;20149;-73
2021/05/12 10:18:01;;;;;;;;;;;;;;;23.85;31.45;96181.69;1680170;84;20216;-74
2021/05/12 10:20:27;;;;;;;;;;;;;;;23.85;31.69;96183.02;1676401;86;20184;-75
2021/05/12 10:22:56;;;;;;;;;;;;;;;23.88;32.07;96183.92;1676585;85;20179;-77
2021/05/12 10:25:23;;;;;;;;;;;;;;;23.90;32.33;96192.56;1676603;86;20523;-74
2021/05/12 10:27:50;;;;;;;;;;;;;;;23.91;32.28;96183.98;1676617;86;20512;-77
2021/05/12 10:30:17;;;;;;;;;;;;;;;23.74;33.08;96177.08;1676681;86;20539;-75
2021/05/12 10:32:52;;;;;;;;;;;;;;;23.84;33.31;96177.34;1686868;84;20160;-75
2021/05/12 10:35:15;;;;;;;;;;;;;;;23.97;31.76;96180.39;1685462;84;20160;-75
2021/05/12 10:37:46;;;;;;;;;;;;;;;23.97;30.96;96175.84;1710661;84;20211;-75
2021/05/12 10:40:18;;;;;;;;;;;;;;;23.92;30.85;96179.70;1700358;84;20190;-74
2021/05/12 10:46:29;;;;;;;;;;;;;;;24.09;31.55;96162.39;1692753;84;20173;-74
2021/05/12 10:48:37;;;;;;;;;;;;;;;24.22;30.94;96170.77;1694959;84;20181;-75
2021/05/12 10:51:07;;;;;;;;;;;;;;;24.30;30.48;96161.00;1709753;84;21002;-75
2021/05/12 10:53:45;;;;;;;;;;;;;;;24.40;30.25;96164.47;1703399;84;20504;-74
2021/05/12 10:56:13;;;;;;;;;;;;;;;24.39;29.89;96159.30;1710775;84;20172;-74
2021/05/12 10:58:49;;;;;;;;;;;;;;;24.42;27.99;96158.84;1710878;84;20185;-75
2021/05/12 11:01:15;;;;;;;;;;;;;;;24.44;27.72;96164.28;1710756;84;20169;-75
2021/05/12 11:03:54;;;;;;;;;;;;;;;24.41;28.21;96154.51;1710851;84;20177;-74
2021/05/12 11:06:23;;;;;;;;;;;;;;;24.35;28.55;96150.88;1709924;84;20196;-77
2021/05/12 11:09:09;;;;;;;;;;;;;;;24.30;26.39;96146.20;1710635;84;20169;-75
2021/05/12 11:11:45;;;;;;;;;;;;;;;24.33;25.75;96144.90;1710729;84;20291;-75
2021/05/12 11:14:27;;;;;;;;;;;;;;;24.44;26.00;96159.44;1710699;84;20348;-75
2021/05/12 11:17:05;;;;;;;;;;;;;;;24.32;25.41;96144.60;1710834;84;20488;-75
2021/05/12 11:19:38;;;;;;;;;;;;;;;24.36;26.33;96142.29;1682971;84;20527;-75
2021/05/12 11:22:29;;;;;;;;;;;;;;;24.45;27.09;96135.50;1682244;85;20171;-75
2021/05/12 11:25:39;;;;;;;;;;;;;;;24.56;25.52;96130.60;1698183;84;20505;-74
2021/05/12 11:27:49;;;;;;;;;;;;;;;24.50;24.86;96132.91;1689039;84;20236;-74
2021/05/12 11:32:26;;;;;;;;;;;;;;;24.44;24.80;96119.84;1682416;85;20159;-76
2021/05/12 11:34:52;;;;;;;;;;;;;;;24.52;25.11;96121.88;1686651;84;20153;-77
2021/05/12 11:37:22;;;;;;;;;;;;;;;24.47;25.52;96118.55;1700871;84;20145;-75
2021/05/12 11:39:48;;;;;;;;;;;;;;;24.58;26.31;96115.57;1700695;84;20160;-75
2021/05/12 11:42:20;;;;;;;;;;;;;;;24.69;25.62;96112.05;1700591;84;20552;-74
2021/05/12 11:44:48;;;;;;;;;;;;;;;24.74;24.93;96115.38;1700727;84;20180;-73
2021/05/12 11:47:28;;;;;;;;;;;;;;;24.78;25.76;96106.58;1701017;84;20174;-75
2021/05/12 11:49:55;;;;;;;;;;;;;;;24.90;25.67;96100.34;1687139;84;20141;-74
2021/05/12 11:52:34;;;;;;;;;;;;;;;24.94;24.97;96101.52;1700985;84;20180;-74
2021/05/12 11:55:06;;;;;;;;;;;;;;;24.97;24.44;96099.67;1700965;84;20505;-74
2021/05/12 11:57:34;;;;;;;;;;;;;;;25.05;25.67;96094.44;1699182;84;20153;-75
2021/05/12 12:00:04;;;;;;;;;;;;;;;25.04;26.68;96089.59;1677273;84;20212;-75
2021/05/12 12:02:33;;;;;;;;;;;;;;;25.15;26.17;96085.75;1697960;83;20565;-75
2021/05/12 12:05:07;;;;;;;;;;;;;;;25.23;26.00;96086.16;1688380;84;20159;-76
2021/05/12 12:07:34;;;;;;;;;;;;;;;25.33;25.40;96077.97;1671523;86;20175;-75
2021/05/12 12:10:05;;;;;;;;;;;;;;;25.34;24.74;96085.80;1692912;84;20196;-75
2021/05/12 12:12:34;;;;;;;;;;;;;;;25.38;25.42;96076.19;1700909;84;20213;-77
2021/05/12 12:15:08;;;;;;;;;;;;;;;25.39;25.83;96082.38;1688662;84;20173;-75
2021/05/12 12:17:34;;;;;;;;;;;;;;;25.46;26.13;96070.13;1682674;84;20157;-75
2021/05/12 12:20:05;;;;;;;;;;;;;;;25.49;26.41;96077.75;1679319;84;20149;-77
2021/05/12 12:22:31;;;;;;;;;;;;;;;25.50;26.72;96075.34;1696630;84;20236;-73
2021/05/12 12:25:15;;;;;;;;;;;;;;;25.46;27.01;96066.92;1679137;84;20163;-77
2021/05/12 12:27:42;;;;;;;;;;;;;;;25.50;26.94;96053.77;1687310;84;20224;-75
2021/05/12 12:30:10;;;;;;;;;;;;;;;25.53;27.22;96050.04;1696658;84;20497;-76
2021/05/12 12:32:37;;;;;;;;;;;;;;;25.53;27.61;96051.39;1692608;84;20149;-76
2021/05/12 12:35:03;;;;;;;;;;;;;;;25.52;27.93;96050.30;1689476;84;20248;-76
2021/05/12 12:37:35;;;;;;;;;;;;;;;25.52;27.42;96035.46;1710321;84;20224;-78
2021/05/12 12:40:11;;;;;;;;;;;;;;;25.49;27.44;96044.03;1709517;83;20192;-76
2021/05/12 12:42:39;;;;;;;;;;;;;;;25.52;27.22;96032.77;1708907;84;20169;-75
2021/05/12 12:45:15;;;;;;;;;;;;;;;25.59;27.06;96037.97;1708843;84;20311;-76
2021/05/12 12:47:50;;;;;;;;;;;;;;;25.59;27.42;96033.92;1706943;84;20197;-77
2021/05/12 12:50:18;;;;;;;;;;;;;;;25.64;27.64;96025.93;1687449;84;20166;-73
2021/05/12 12:52:44;;;;;;;;;;;;;;;25.67;27.80;96028.12;1697601;84;20163;-75
2021/05/12 12:55:22;;;;;;;;;;;;;;;25.69;27.61;96028.18;1681816;85;20151;-76
2021/05/12 12:57:56;;;;;;;;;;;;;;;25.70;27.26;96022.24;1681857;85;20171;-77
2021/05/12 13:00:31;;;;;;;;;;;;;;;25.76;27.69;96011.80;1681723;84;20151;-72
2021/05/12 13:03:11;;;;;;;;;;;;;;;25.80;26.92;96013.50;1691044;82;20204;-74
2021/05/12 13:05:43;;;;;;;;;;;;;;;25.77;27.51;96009.94;1708316;84;20458;-75